createdAt,value
2019-04-22T00:01:04.873Z,58.60
2019-04-22T00:03:49.994Z,59.17
2019-04-22T00:06:42.915Z,60.28
2019-04-22T00:09:19.226Z,61.15
2019-04-22T00:12:02.177Z,59.82
2019-04-22T00:18:02.976Z,59.42
2019-04-22T00:21:12.647Z,59.76
2019-04-22T00:23:53.084Z,59.60
2019-04-22T00:26:31.194Z,59.87
2019-04-22T00:29:10.138Z,58.89
2019-04-22T00:32:00.839Z,57.67
2019-04-22T00:34:53.667Z,53.07
2019-04-22T00:37:37.920Z,51.59
2019-04-22T00:40:14.312Z,54.19
2019-04-22T00:42:47.709Z,54.81
2019-04-22T00:45:26.754Z,57.38
2019-04-22T00:48:00.970Z,57.50
2019-04-22T00:53:41.759Z,59.26
2019-04-22T00:56:29.011Z,60.38
2019-04-22T00:59:04.426Z,59.82
2019-04-22T01:01:37.002Z,60.79
2019-04-22T01:04:27.987Z,60.96
2019-04-22T01:10:09.273Z,60.70
2019-04-22T01:12:51.221Z,63.41
2019-04-22T01:18:37.991Z,63.40
2019-04-22T01:22:12.567Z,63.48
2019-04-22T01:27:54.763Z,65.21
2019-04-22T01:31:04.704Z,64.68
2019-04-22T01:33:42.948Z,65.81
2019-04-22T01:36:35.242Z,64.69
2019-04-22T01:39:18.277Z,64.95
2019-04-22T01:44:33.314Z,65.30
2019-04-22T01:50:23.954Z,67.76
2019-04-22T01:53:24.097Z,65.95
2019-04-22T01:55:55.428Z,65.54
2019-04-22T01:58:36.182Z,65.14
2019-04-22T02:01:28.167Z,66.50
2019-04-22T02:03:54.632Z,66.31
2019-04-22T02:06:40.761Z,66.06
2019-04-22T02:11:46.739Z,66.97
2019-04-22T02:14:19.967Z,67.78
2019-04-22T02:17:06.479Z,68.45
2019-04-22T02:19:53.409Z,68.59
2019-04-22T02:22:19.090Z,68.41
2019-04-22T02:25:08.553Z,69.10
2019-04-22T02:27:45.602Z,65.85
2019-04-22T02:30:42.161Z,67.07
2019-04-22T02:44:12.255Z,68.48
2019-04-22T02:47:01.207Z,68.75
2019-04-22T02:49:24.461Z,70.47
2019-04-22T02:51:52.428Z,68.93
2019-04-22T02:55:00.373Z,70.61
2019-04-22T02:57:35.185Z,69.93
2019-04-22T03:00:29.353Z,71.10
2019-04-22T03:03:03.784Z,70.82
2019-04-22T03:08:06.699Z,70.97
2019-04-22T03:13:47.166Z,71.90
2019-04-22T03:16:32.040Z,71.64
2019-04-22T03:21:51.897Z,73.92
2019-04-22T03:24:25.822Z,73.71
2019-04-22T03:27:07.817Z,74.98
2019-04-22T03:33:16.319Z,74.50
2019-04-22T03:42:02.502Z,72.96
2019-04-22T03:44:24.902Z,74.46
2019-04-22T03:47:01.825Z,75.92
2019-04-22T03:49:41.141Z,73.15
2019-04-22T03:54:45.851Z,74.47
2019-04-22T04:02:39.408Z,75.14
2019-04-22T04:05:16.592Z,77.12
2019-04-22T04:13:16.909Z,76.88
2019-04-22T04:15:46.612Z,76.36
2019-04-22T04:18:30.932Z,76.26
2019-04-22T04:21:22.898Z,75.24
2019-04-22T04:26:30.796Z,72.83
2019-04-22T04:29:17.389Z,74.71
2019-04-22T04:31:40.799Z,73.30
2019-04-22T04:34:28.381Z,73.84
2019-04-22T04:39:34.867Z,74.29
2019-04-22T04:42:25.691Z,76.06
2019-04-22T04:45:11.392Z,74.58
2019-04-22T04:50:31.267Z,74.76
2019-04-22T04:55:35.208Z,75.59
2019-04-22T04:58:19.967Z,77.59
2019-04-22T05:05:59.323Z,76.14
2019-04-22T05:08:52.886Z,76.75
2019-04-22T05:14:17.714Z,74.12
2019-04-22T05:19:37.003Z,73.80
2019-04-22T05:22:20.745Z,70.12
2019-04-22T05:24:58.383Z,71.28
2019-04-22T05:27:37.797Z,71.37
2019-04-22T05:32:43.303Z,70.29
2019-04-22T05:35:20.630Z,69.41
2019-04-22T05:38:04.549Z,69.94
2019-04-22T05:43:34.530Z,68.18
2019-04-22T05:46:22.362Z,67.83
2019-04-22T05:49:08.199Z,65.15
2019-04-22T05:51:41.691Z,66.78
2019-04-22T05:54:16.056Z,65.04
2019-04-22T05:56:47.681Z,58.50
2019-04-22T05:59:56.959Z,57.08
2019-04-22T06:02:41.717Z,58.41
2019-04-22T06:05:05.109Z,56.06
2019-04-22T06:08:22.060Z,56.18
2019-04-22T06:11:22.743Z,57.40
2019-04-22T06:17:18.337Z,56.08
2019-04-22T06:20:03.050Z,56.25
2019-04-22T06:23:12.848Z,55.28
2019-04-22T06:25:57.406Z,55.28
2019-04-22T06:28:44.560Z,51.60
2019-04-22T06:31:21.033Z,51.48
2019-04-22T06:33:56.464Z,51.48
2019-04-22T06:36:29.301Z,53.36
2019-04-22T06:39:10.312Z,54.68
2019-04-22T06:41:43.563Z,53.05
2019-04-22T06:44:36.892Z,52.94
2019-04-22T06:47:15.072Z,52.94
2019-04-22T06:50:14.782Z,52.67
2019-04-22T06:52:48.296Z,52.67
2019-04-22T06:55:22.928Z,51.93
2019-04-22T06:57:59.865Z,51.31
2019-04-22T07:03:48.986Z,50.92
2019-04-22T07:09:21.983Z,51.87
2019-04-22T07:11:36.714Z,50.74
2019-04-22T07:14:28.616Z,51.00
2019-04-22T07:17:00.897Z,50.67
2019-04-22T07:19:36.050Z,52.26
2019-04-22T07:22:11.276Z,50.75
2019-04-22T07:24:55.825Z,48.48
2019-04-22T07:28:13.780Z,48.30
2019-04-22T07:30:44.697Z,46.82
2019-04-22T07:33:27.792Z,45.65
2019-04-22T07:36:28.454Z,44.58
2019-04-22T07:38:32.818Z,45.11
2019-04-22T07:41:12.394Z,43.78
2019-04-22T07:44:13.127Z,43.15
2019-04-22T07:46:28.682Z,42.98
2019-04-22T07:49:01.972Z,43.09
2019-04-22T07:51:36.792Z,45.25
2019-04-22T07:54:19.751Z,43.19
2019-04-22T07:57:06.303Z,43.13
2019-04-22T07:59:35.120Z,42.37
2019-04-22T08:02:16.317Z,43.33
2019-04-22T08:05:00.123Z,44.05
2019-04-22T08:10:12.013Z,42.02
2019-04-22T08:12:38.975Z,41.51
2019-04-22T08:15:14.025Z,42.25
2019-04-22T08:20:42.757Z,41.08
2019-04-22T08:23:09.656Z,43.52
2019-04-22T08:26:07.764Z,42.34
2019-04-22T08:28:37.868Z,41.12
2019-04-22T08:31:14.943Z,41.26
2019-04-22T08:34:08.184Z,40.40
2019-04-22T08:39:07.961Z,40.65
2019-04-22T08:47:08.965Z,39.31
2019-04-22T08:50:26.666Z,40.06
2019-04-22T08:56:14.495Z,38.58
2019-04-22T08:58:58.770Z,39.75
2019-04-22T09:01:32.676Z,37.78
2019-04-22T09:04:10.407Z,37.24
2019-04-22T09:09:27.079Z,38.26
2019-04-22T09:12:07.671Z,38.00
2019-04-22T09:14:42.199Z,35.91
2019-04-22T09:17:22.877Z,36.52
2019-04-22T09:19:54.566Z,36.01
2019-04-22T09:22:26.306Z,34.85
2019-04-22T09:25:08.110Z,35.32
2019-04-22T09:28:05.746Z,35.04
2019-04-22T09:33:43.087Z,36.00
2019-04-22T09:36:29.049Z,34.71
2019-04-22T09:39:15.704Z,35.39
2019-04-22T09:41:48.332Z,34.81
2019-04-22T09:44:36.191Z,34.63
2019-04-22T09:47:13.149Z,34.68
2019-04-22T09:49:55.424Z,33.70
2019-04-22T09:52:29.431Z,32.28
2019-04-22T09:55:12.991Z,31.78
2019-04-22T09:57:52.461Z,32.88
2019-04-22T10:09:26.963Z,31.91
2019-04-22T10:11:58.680Z,31.06
2019-04-22T10:14:18.752Z,30.13
2019-04-22T10:16:53.842Z,30.05
2019-04-22T10:19:30.678Z,31.01
2019-04-22T10:22:10.498Z,29.18
2019-04-22T10:24:44.994Z,30.05
2019-04-22T10:27:23.953Z,30.10
2019-04-22T10:30:00.290Z,28.62
2019-04-22T10:32:29.206Z,28.55
2019-04-22T10:37:30.159Z,27.96
2019-04-22T10:40:04.224Z,27.81
2019-04-22T10:42:54.912Z,28.04
2019-04-22T10:45:25.969Z,27.88
2019-04-22T10:48:44.386Z,27.84
2019-04-22T10:54:29.314Z,28.72
2019-04-22T10:57:08.774Z,29.67
2019-04-22T10:59:45.258Z,29.51
2019-04-22T11:02:14.595Z,30.65
2019-04-22T11:04:44.051Z,29.91
2019-04-22T11:07:14.901Z,28.88
2019-04-22T11:12:45.018Z,29.24
2019-04-22T11:16:13.915Z,30.88
2019-04-22T11:18:43.485Z,30.45
2019-04-22T11:21:33.810Z,29.31
2019-04-22T11:24:10.583Z,30.04
2019-04-22T11:26:47.057Z,29.64
2019-04-22T11:29:27.849Z,29.27
2019-04-22T11:32:04.216Z,30.89
2019-04-22T11:34:39.923Z,28.66
2019-04-22T11:37:10.231Z,29.49
2019-04-22T11:39:48.153Z,28.59
2019-04-22T11:42:23.869Z,30.03
2019-04-22T11:48:45.607Z,29.97
2019-04-22T11:51:22.119Z,29.69
2019-04-22T11:53:58.814Z,30.63
2019-04-22T11:56:34.995Z,29.00
2019-04-22T11:59:04.851Z,29.50
2019-04-22T12:01:42.510Z,29.27
2019-04-22T12:04:18.014Z,30.49
2019-04-22T12:06:54.063Z,29.83
2019-04-22T12:09:30.022Z,30.74
2019-04-22T12:11:59.968Z,29.67
2019-04-22T12:14:50.072Z,29.06
2019-04-22T12:20:47.484Z,28.92
2019-04-22T12:23:37.087Z,29.00
2019-04-22T12:26:27.327Z,28.93
2019-04-22T12:29:07.166Z,29.83
2019-04-22T12:31:37.621Z,29.65
2019-04-22T12:34:26.593Z,28.82
2019-04-22T12:36:56.308Z,28.58
2019-04-22T12:39:47.453Z,30.17
2019-04-22T12:42:27.131Z,29.72
2019-04-22T12:45:02.526Z,28.41
2019-04-22T12:47:40.149Z,26.73
2019-04-22T12:50:38.467Z,27.09
2019-04-22T12:53:15.914Z,26.74
2019-04-22T12:55:48.099Z,27.90
2019-04-22T12:58:25.467Z,26.82
2019-04-22T13:01:01.219Z,26.28
2019-04-22T13:03:38.199Z,26.70
2019-04-22T13:06:17.524Z,28.15
2019-04-22T13:08:57.028Z,27.26
2019-04-22T13:11:30.860Z,26.86
2019-04-22T13:14:16.803Z,26.67
2019-04-22T13:16:53.607Z,26.86
2019-04-22T13:19:30.263Z,27.96
2019-04-22T13:22:07.066Z,27.45
2019-04-22T13:24:43.843Z,26.38
2019-04-22T13:27:24.772Z,27.62
2019-04-22T13:33:12.677Z,28.67
2019-04-22T13:36:03.742Z,27.46
2019-04-22T13:38:42.955Z,26.71
2019-04-22T13:41:28.874Z,26.86
2019-04-22T13:43:56.087Z,28.47
2019-04-22T13:46:34.096Z,28.41
2019-04-22T13:49:40.705Z,27.92
2019-04-22T13:57:19.760Z,29.22
2019-04-22T13:59:42.824Z,28.66
2019-04-22T14:02:34.747Z,27.34
2019-04-22T14:05:22.488Z,27.26
2019-04-22T14:07:54.858Z,27.41
2019-04-22T14:10:42.805Z,28.34
2019-04-22T14:13:19.630Z,27.87
2019-04-22T14:15:55.068Z,28.53
2019-04-22T14:18:25.217Z,29.51
2019-04-22T14:21:14.907Z,29.72
2019-04-22T14:23:54.512Z,29.99
2019-04-22T14:26:25.062Z,29.20
2019-04-22T14:29:15.251Z,28.44
2019-04-22T14:32:04.278Z,28.78
2019-04-22T14:34:28.358Z,28.50
2019-04-22T14:37:03.621Z,28.96
2019-04-22T14:39:44.101Z,27.15
2019-04-22T14:42:39.347Z,27.98
2019-04-22T14:45:54.416Z,27.45
2019-04-22T14:48:01.425Z,29.48
2019-04-22T14:53:56.130Z,27.98
2019-04-22T14:56:28.738Z,28.16
2019-04-22T14:58:58.836Z,29.80
2019-04-22T15:01:49.653Z,29.46
2019-04-22T15:04:24.869Z,29.35
2019-04-22T15:06:54.845Z,28.83
2019-04-22T15:09:44.320Z,28.64
2019-04-22T15:12:20.609Z,29.40
2019-04-22T15:15:21.753Z,27.93
2019-04-22T15:18:10.285Z,28.63
2019-04-22T15:23:20.266Z,28.86
2019-04-22T15:25:59.116Z,28.71
2019-04-22T15:28:39.632Z,27.70
2019-04-22T15:31:17.373Z,26.59
2019-04-22T15:33:56.440Z,26.57
2019-04-22T15:36:32.713Z,26.16
2019-04-22T15:39:02.969Z,26.69
2019-04-22T15:41:38.758Z,27.41
2019-04-22T15:44:15.448Z,26.30
2019-04-22T15:46:51.330Z,27.08
2019-04-22T15:49:22.235Z,26.57
2019-04-22T15:52:12.384Z,26.67
2019-04-22T15:54:53.789Z,28.06
2019-04-22T15:57:28.969Z,27.04
2019-04-22T16:03:29.011Z,27.12
2019-04-22T16:06:08.305Z,27.31
2019-04-22T16:08:45.682Z,27.62
2019-04-22T16:11:22.095Z,27.93
2019-04-22T16:13:57.557Z,27.66
2019-04-22T16:16:28.096Z,28.34
2019-04-22T16:22:11.182Z,27.38
2019-04-22T16:25:02.415Z,27.44
2019-04-22T16:27:38.544Z,27.60
2019-04-22T16:33:39.321Z,26.96
2019-04-22T16:36:12.994Z,26.00
2019-04-22T16:38:49.070Z,25.81
2019-04-22T16:41:37.147Z,25.90
2019-04-22T16:44:47.557Z,25.96
2019-04-22T16:47:55.767Z,26.15
2019-04-22T16:50:25.223Z,25.74
2019-04-22T16:52:54.494Z,26.82
2019-04-22T16:55:23.888Z,25.59
2019-04-22T17:00:34.411Z,26.15
2019-04-22T17:03:30.749Z,27.02
2019-04-22T17:06:25.702Z,25.99
2019-04-22T17:08:55.225Z,25.46
2019-04-22T17:11:25.571Z,25.38
2019-04-22T17:14:20.470Z,25.73
2019-04-22T17:16:52.724Z,26.41
2019-04-22T17:19:29.088Z,26.04
2019-04-22T17:22:03.807Z,26.11
2019-04-22T17:24:33.138Z,26.51
2019-04-22T17:27:02.463Z,26.78
2019-04-22T17:29:32.442Z,27.71
2019-04-22T17:32:23.487Z,27.22
2019-04-22T17:35:13.444Z,26.68
2019-04-22T17:37:42.957Z,26.78
2019-04-22T17:40:52.292Z,26.72
2019-04-22T17:43:44.142Z,27.71
2019-04-22T17:46:24.747Z,27.13
2019-04-22T17:52:30.496Z,27.49
2019-04-22T17:55:05.015Z,27.48
2019-04-22T17:57:34.380Z,28.66
2019-04-22T18:00:06.831Z,28.31
2019-04-22T18:02:43.003Z,28.80
2019-04-22T18:05:07.403Z,27.75
2019-04-22T18:08:07.740Z,28.00
2019-04-22T18:10:37.583Z,28.34
2019-04-22T18:13:23.499Z,29.02
2019-04-22T18:15:48.728Z,29.96
2019-04-22T18:18:28.208Z,29.04
2019-04-22T18:20:55.095Z,29.75
2019-04-22T18:23:25.138Z,30.60
2019-04-22T18:26:12.599Z,30.59
2019-04-22T18:28:54.264Z,31.25
2019-04-22T18:31:21.803Z,32.31
2019-04-22T18:34:02.068Z,31.17
2019-04-22T18:36:40.410Z,30.65
2019-04-22T18:39:22.331Z,30.36
2019-04-22T18:42:00.574Z,31.52
2019-04-22T18:44:39.811Z,30.69
2019-04-22T18:47:14.526Z,31.38
2019-04-22T18:49:49.385Z,31.42
2019-04-22T18:52:49.154Z,32.22
2019-04-22T18:56:07.901Z,32.77
2019-04-22T18:58:36.686Z,32.85
2019-04-22T19:00:57.956Z,33.00
2019-04-22T19:03:46.811Z,33.58
2019-04-22T19:06:51.890Z,33.83
2019-04-22T19:09:13.565Z,34.25
2019-04-22T19:12:06.279Z,34.80
2019-04-22T19:14:35.627Z,35.26
2019-04-22T19:17:19.739Z,34.84
2019-04-22T19:19:49.846Z,34.31
2019-04-22T19:22:29.831Z,34.83
2019-04-22T19:24:56.074Z,34.26
2019-04-22T19:27:35.943Z,34.35
2019-04-22T19:30:20.165Z,33.81
2019-04-22T19:33:02.877Z,34.60
2019-04-22T19:36:14.529Z,34.79
2019-04-22T19:38:38.830Z,34.71
2019-04-22T19:41:24.467Z,35.34
2019-04-22T19:44:05.841Z,35.30
2019-04-22T19:46:35.397Z,35.45
2019-04-22T19:49:18.394Z,35.60
2019-04-22T19:51:57.300Z,35.65
2019-04-22T19:57:15.650Z,36.30
2019-04-22T20:06:08.118Z,36.47
2019-04-22T20:08:59.289Z,36.91
2019-04-22T20:11:45.981Z,37.25
2019-04-22T20:14:24.853Z,37.86
2019-04-22T20:16:54.824Z,38.02
2019-04-22T20:19:45.363Z,38.24
2019-04-22T20:22:32.759Z,38.64
2019-04-22T20:25:01.865Z,38.99
2019-04-22T20:27:51.034Z,39.31
2019-04-22T20:31:03.824Z,39.28
2019-04-22T20:33:44.403Z,39.23
2019-04-22T20:36:42.486Z,39.55
2019-04-22T20:38:56.567Z,39.71
2019-04-22T20:41:31.499Z,40.11
2019-04-22T20:44:16.476Z,40.27
2019-04-22T20:46:44.820Z,41.14
2019-04-22T20:49:30.569Z,40.67
2019-04-22T20:52:06.380Z,40.96
2019-04-22T20:54:40.232Z,41.16
2019-04-22T20:57:38.163Z,41.84
2019-04-22T20:59:55.586Z,42.04
2019-04-22T21:02:45.503Z,42.00
2019-04-22T21:06:00.828Z,42.62
2019-04-22T21:08:48.753Z,42.51
2019-04-22T21:11:21.050Z,43.11
2019-04-22T21:13:55.960Z,43.75
2019-04-22T21:16:34.611Z,43.25
2019-04-22T21:22:36.592Z,43.59
2019-04-22T21:25:01.990Z,43.31
2019-04-22T21:27:45.508Z,43.50
2019-04-22T21:30:15.525Z,43.75
2019-04-22T21:32:53.563Z,44.29
2019-04-22T21:36:20.593Z,44.74
2019-04-22T21:38:48.301Z,44.39
2019-04-22T21:41:28.176Z,44.35
2019-04-22T21:44:04.150Z,43.40
2019-04-22T21:46:53.684Z,44.19
2019-04-22T21:49:27.997Z,44.00
2019-04-22T21:51:58.423Z,43.59
2019-04-22T21:54:42.965Z,43.96
2019-04-22T21:57:57.686Z,43.65
2019-04-22T22:00:31.310Z,43.93
2019-04-22T22:02:52.227Z,43.76
2019-04-22T22:08:35.293Z,44.07
2019-04-22T22:11:13.656Z,43.65
2019-04-22T22:13:51.943Z,44.18
2019-04-22T22:16:29.151Z,43.74
2019-04-22T22:19:11.232Z,43.76
2019-04-22T22:21:51.124Z,43.95
2019-04-22T22:24:27.354Z,44.26
2019-04-22T22:27:04.553Z,44.27
2019-04-22T22:29:57.018Z,44.51
2019-04-22T22:32:24.527Z,43.93
2019-04-22T22:34:56.858Z,44.47
2019-04-22T22:37:21.847Z,44.14
2019-04-22T22:39:58.041Z,44.67
2019-04-22T22:42:36.383Z,43.76
2019-04-22T22:45:33.835Z,43.78
2019-04-22T22:48:41.288Z,44.59
2019-04-22T22:50:52.154Z,44.71
2019-04-22T22:53:40.501Z,44.42
2019-04-22T22:56:16.140Z,44.71
2019-04-22T22:58:57.317Z,44.88
2019-04-22T23:01:32.174Z,44.96
2019-04-22T23:04:12.482Z,45.23
2019-04-22T23:06:44.434Z,44.75
2019-04-22T23:09:19.840Z,45.07
2019-04-22T23:12:06.147Z,45.54
2019-04-22T23:14:32.726Z,45.38
2019-04-22T23:19:33.695Z,45.16
2019-04-22T23:22:20.707Z,45.06
2019-04-22T23:25:27.387Z,45.06
2019-04-22T23:28:12.500Z,45.50
2019-04-22T23:31:07.590Z,45.23
2019-04-22T23:34:02.892Z,45.12
2019-04-22T23:36:56.021Z,45.35
2019-04-22T23:39:52.299Z,45.51
2019-04-22T23:44:56.264Z,45.42
2019-04-22T23:56:24.097Z,46.42
2019-04-22T23:59:04.736Z,45.98
